sensor_id;sensor_type;location;lat;lon;timestamp;P1;durP1;ratioP1;P2;durP2;ratioP2
23743;SDS011;12052;53.478;10.182;2023-03-01T00:01:20;25.15;;;12.02;;
23743;SDS011;12052;53.478;10.182;2023-03-01T00:03:48;27.95;;;11.68;;
23743;SDS011;12052;53.478;10.182;2023-03-01T00:06:14;25.83;;;10.80;;
23743;SDS011;12052;53.478;10.182;2023-03-01T00:08:40;21.95;;;11.18;;
23743;SDS011;12052;53.478;10.182;2023-03-01T00:13:34;18.02;;;9.82;;
23743;SDS011;12052;53.478;10.182;2023-03-01T00:16:02;24.88;;;10.82;;
23743;SDS011;12052;53.478;10.182;2023-03-01T00:18:28;21.95;;;9.98;;
23743;SDS011;12052;53.478;10.182;2023-03-01T00:20:54;28.77;;;9.38;;
23743;SDS011;12052;53.478;10.182;2023-03-01T00:23:21;17.80;;;8.88;;
23743;SDS011;12052;53.478;10.182;2023-03-01T00:25:47;20.35;;;9.32;;
23743;SDS011;12052;53.478;10.182;2023-03-01T00:28:13;13.48;;;8.02;;
23743;SDS011;12052;53.478;10.182;2023-03-01T00:30:39;23.83;;;10.18;;
23743;SDS011;12052;53.478;10.182;2023-03-01T00:33:05;20.42;;;9.30;;
23743;SDS011;12052;53.478;10.182;2023-03-01T00:35:31;18.13;;;9.70;;
23743;SDS011;12052;53.478;10.182;2023-03-01T00:37:58;22.45;;;9.88;;
23743;SDS011;12052;53.478;10.182;2023-03-01T00:40:24;20.65;;;9.32;;
23743;SDS011;12052;53.478;10.182;2023-03-01T00:42:51;19.02;;;9.50;;
23743;SDS011;12052;53.478;10.182;2023-03-01T00:45:17;24.55;;;10.10;;
23743;SDS011;12052;53.478;10.182;2023-03-01T00:47:43;21.40;;;9.90;;
23743;SDS011;12052;53.478;10.182;2023-03-01T00:50:09;24.25;;;9.90;;
23743;SDS011;12052;53.478;10.182;2023-03-01T00:52:35;17.58;;;9.73;;
23743;SDS011;12052;53.478;10.182;2023-03-01T00:55:02;22.45;;;10.80;;
23743;SDS011;12052;53.478;10.182;2023-03-01T00:57:28;30.10;;;11.48;;
23743;SDS011;12052;53.478;10.182;2023-03-01T00:59:54;23.05;;;10.77;;
23743;SDS011;12052;53.478;10.182;2023-03-01T01:02:19;24.42;;;10.90;;
23743;SDS011;12052;53.478;10.182;2023-03-01T01:04:46;24.02;;;10.80;;
23743;SDS011;12052;53.478;10.182;2023-03-01T01:07:12;23.85;;;9.70;;
23743;SDS011;12052;53.478;10.182;2023-03-01T01:09:38;17.63;;;8.80;;
23743;SDS011;12052;53.478;10.182;2023-03-01T01:12:04;21.83;;;9.50;;
23743;SDS011;12052;53.478;10.182;2023-03-01T01:14:30;20.20;;;9.32;;
23743;SDS011;12052;53.478;10.182;2023-03-01T01:16:56;23.50;;;9.77;;
23743;SDS011;12052;53.478;10.182;2023-03-01T01:19:21;15.75;;;8.43;;
23743;SDS011;12052;53.478;10.182;2023-03-01T01:21:47;17.48;;;9.32;;
23743;SDS011;12052;53.478;10.182;2023-03-01T01:24:14;18.52;;;9.30;;
23743;SDS011;12052;53.478;10.182;2023-03-01T01:26:40;19.10;;;8.85;;
23743;SDS011;12052;53.478;10.182;2023-03-01T01:29:06;20.95;;;8.43;;
23743;SDS011;12052;53.478;10.182;2023-03-01T01:31:33;15.32;;;8.23;;
23743;SDS011;12052;53.478;10.182;2023-03-01T01:34:00;20.42;;;8.10;;
23743;SDS011;12052;53.478;10.182;2023-03-01T01:36:27;16.67;;;7.82;;
23743;SDS011;12052;53.478;10.182;2023-03-01T01:38:53;15.65;;;8.02;;
23743;SDS011;12052;53.478;10.182;2023-03-01T01:41:19;12.65;;;7.18;;
23743;SDS011;12052;53.478;10.182;2023-03-01T01:43:49;18.38;;;7.13;;
23743;SDS011;12052;53.478;10.182;2023-03-01T01:46:40;20.83;;;8.00;;
23743;SDS011;12052;53.478;10.182;2023-03-01T01:49:13;13.25;;;7.28;;
23743;SDS011;12052;53.478;10.182;2023-03-01T01:51:47;16.25;;;7.10;;
23743;SDS011;12052;53.478;10.182;2023-03-01T01:54:22;13.32;;;6.90;;
23743;SDS011;12052;53.478;10.182;2023-03-01T01:56:55;11.32;;;7.28;;
23743;SDS011;12052;53.478;10.182;2023-03-01T01:59:25;17.48;;;7.20;;
23743;SDS011;12052;53.478;10.182;2023-03-01T02:01:53;16.17;;;7.35;;
23743;SDS011;12052;53.478;10.182;2023-03-01T02:04:19;21.33;;;8.35;;
23743;SDS011;12052;53.478;10.182;2023-03-01T02:06:48;15.75;;;8.15;;
23743;SDS011;12052;53.478;10.182;2023-03-01T02:09:19;16.90;;;7.90;;
23743;SDS011;12052;53.478;10.182;2023-03-01T02:11:46;26.35;;;8.85;;
23743;SDS011;12052;53.478;10.182;2023-03-01T02:14:13;15.32;;;8.02;;
23743;SDS011;12052;53.478;10.182;2023-03-01T02:16:40;15.82;;;7.43;;
23743;SDS011;12052;53.478;10.182;2023-03-01T02:19:07;13.75;;;6.55;;
23743;SDS011;12052;53.478;10.182;2023-03-01T02:21:43;15.45;;;6.93;;
23743;SDS011;12052;53.478;10.182;2023-03-01T02:26:54;11.43;;;6.63;;
23743;SDS011;12052;53.478;10.182;2023-03-01T02:29:22;18.40;;;7.75;;
23743;SDS011;12052;53.478;10.182;2023-03-01T02:31:49;13.07;;;7.10;;
23743;SDS011;12052;53.478;10.182;2023-03-01T02:34:18;11.93;;;6.25;;
23743;SDS011;12052;53.478;10.182;2023-03-01T02:36:47;11.82;;;6.57;;
23743;SDS011;12052;53.478;10.182;2023-03-01T02:39:37;13.95;;;6.63;;
23743;SDS011;12052;53.478;10.182;2023-03-01T02:42:09;12.27;;;6.68;;
23743;SDS011;12052;53.478;10.182;2023-03-01T02:44:37;13.88;;;6.15;;
23743;SDS011;12052;53.478;10.182;2023-03-01T02:47:03;11.23;;;6.13;;
23743;SDS011;12052;53.478;10.182;2023-03-01T02:49:31;13.50;;;5.43;;
23743;SDS011;12052;53.478;10.182;2023-03-01T02:55:06;14.38;;;6.60;;
23743;SDS011;12052;53.478;10.182;2023-03-01T02:57:36;10.35;;;5.90;;
23743;SDS011;12052;53.478;10.182;2023-03-01T03:00:05;13.05;;;6.47;;
23743;SDS011;12052;53.478;10.182;2023-03-01T03:02:33;12.57;;;6.07;;
23743;SDS011;12052;53.478;10.182;2023-03-01T03:05:10;10.40;;;5.53;;
23743;SDS011;12052;53.478;10.182;2023-03-01T03:07:40;17.63;;;6.72;;
23743;SDS011;12052;53.478;10.182;2023-03-01T03:10:07;13.63;;;6.70;;
23743;SDS011;12052;53.478;10.182;2023-03-01T03:12:36;14.75;;;6.70;;
23743;SDS011;12052;53.478;10.182;2023-03-01T03:15:02;11.55;;;7.22;;
23743;SDS011;12052;53.478;10.182;2023-03-01T03:17:33;14.13;;;6.18;;
23743;SDS011;12052;53.478;10.182;2023-03-01T03:20:03;9.82;;;6.30;;
23743;SDS011;12052;53.478;10.182;2023-03-01T03:22:36;9.88;;;5.82;;
23743;SDS011;12052;53.478;10.182;2023-03-01T03:25:08;14.77;;;6.43;;
23743;SDS011;12052;53.478;10.182;2023-03-01T03:27:35;13.38;;;6.47;;
23743;SDS011;12052;53.478;10.182;2023-03-01T03:30:03;11.57;;;6.22;;
23743;SDS011;12052;53.478;10.182;2023-03-01T03:32:33;12.50;;;7.20;;
23743;SDS011;12052;53.478;10.182;2023-03-01T03:35:03;14.38;;;6.50;;
23743;SDS011;12052;53.478;10.182;2023-03-01T03:37:38;11.40;;;5.88;;
23743;SDS011;12052;53.478;10.182;2023-03-01T03:40:24;12.98;;;6.90;;
23743;SDS011;12052;53.478;10.182;2023-03-01T03:42:50;12.32;;;6.05;;
23743;SDS011;12052;53.478;10.182;2023-03-01T03:45:16;14.65;;;7.13;;
23743;SDS011;12052;53.478;10.182;2023-03-01T03:47:42;16.13;;;7.10;;
23743;SDS011;12052;53.478;10.182;2023-03-01T03:50:09;18.05;;;6.85;;
23743;SDS011;12052;53.478;10.182;2023-03-01T03:52:36;15.30;;;7.35;;
23743;SDS011;12052;53.478;10.182;2023-03-01T03:55:02;14.43;;;7.03;;
23743;SDS011;12052;53.478;10.182;2023-03-01T03:57:28;16.38;;;6.30;;
23743;SDS011;12052;53.478;10.182;2023-03-01T03:59:53;14.82;;;6.95;;
23743;SDS011;12052;53.478;10.182;2023-03-01T04:02:19;12.77;;;7.05;;
23743;SDS011;12052;53.478;10.182;2023-03-01T04:04:49;13.45;;;6.55;;
23743;SDS011;12052;53.478;10.182;2023-03-01T04:07:17;11.80;;;5.35;;
23743;SDS011;12052;53.478;10.182;2023-03-01T04:09:43;12.85;;;7.10;;
23743;SDS011;12052;53.478;10.182;2023-03-01T04:12:09;12.55;;;6.30;;
23743;SDS011;12052;53.478;10.182;2023-03-01T04:14:34;15.43;;;5.93;;
23743;SDS011;12052;53.478;10.182;2023-03-01T04:17:04;13.75;;;7.20;;
23743;SDS011;12052;53.478;10.182;2023-03-01T04:19:31;12.40;;;6.95;;
23743;SDS011;12052;53.478;10.182;2023-03-01T04:22:04;9.75;;;5.93;;
23743;SDS011;12052;53.478;10.182;2023-03-01T04:24:35;17.80;;;6.40;;
23743;SDS011;12052;53.478;10.182;2023-03-01T04:27:01;13.07;;;6.57;;
23743;SDS011;12052;53.478;10.182;2023-03-01T04:29:30;12.45;;;5.70;;
23743;SDS011;12052;53.478;10.182;2023-03-01T04:31:58;11.23;;;6.28;;
23743;SDS011;12052;53.478;10.182;2023-03-01T04:34:25;9.38;;;5.65;;
23743;SDS011;12052;53.478;10.182;2023-03-01T04:36:53;12.30;;;6.20;;
23743;SDS011;12052;53.478;10.182;2023-03-01T04:39:19;10.90;;;5.53;;
23743;SDS011;12052;53.478;10.182;2023-03-01T04:41:45;14.48;;;5.78;;
23743;SDS011;12052;53.478;10.182;2023-03-01T04:44:11;12.35;;;6.05;;
23743;SDS011;12052;53.478;10.182;2023-03-01T04:46:38;12.98;;;6.55;;
23743;SDS011;12052;53.478;10.182;2023-03-01T04:49:04;10.52;;;5.28;;
23743;SDS011;12052;53.478;10.182;2023-03-01T04:51:31;10.90;;;5.82;;
23743;SDS011;12052;53.478;10.182;2023-03-01T04:53:59;13.43;;;6.18;;
23743;SDS011;12052;53.478;10.182;2023-03-01T04:56:28;16.80;;;6.57;;
23743;SDS011;12052;53.478;10.182;2023-03-01T04:58:54;13.82;;;7.10;;
23743;SDS011;12052;53.478;10.182;2023-03-01T05:01:20;8.82;;;5.72;;
23743;SDS011;12052;53.478;10.182;2023-03-01T05:03:46;12.95;;;6.82;;
23743;SDS011;12052;53.478;10.182;2023-03-01T05:06:17;15.35;;;6.80;;
23743;SDS011;12052;53.478;10.182;2023-03-01T05:08:43;9.73;;;6.25;;
23743;SDS011;12052;53.478;10.182;2023-03-01T05:11:10;15.40;;;6.88;;
23743;SDS011;12052;53.478;10.182;2023-03-01T05:13:37;9.50;;;5.95;;
23743;SDS011;12052;53.478;10.182;2023-03-01T05:16:04;14.27;;;6.75;;
23743;SDS011;12052;53.478;10.182;2023-03-01T05:18:31;13.00;;;6.53;;
23743;SDS011;12052;53.478;10.182;2023-03-01T05:21:02;11.50;;;6.05;;
23743;SDS011;12052;53.478;10.182;2023-03-01T05:23:29;10.68;;;6.47;;
23743;SDS011;12052;53.478;10.182;2023-03-01T05:25:57;14.00;;;7.30;;
23743;SDS011;12052;53.478;10.182;2023-03-01T05:28:24;12.73;;;6.40;;
23743;SDS011;12052;53.478;10.182;2023-03-01T05:30:50;12.15;;;6.32;;
23743;SDS011;12052;53.478;10.182;2023-03-01T05:33:17;11.63;;;5.80;;
23743;SDS011;12052;53.478;10.182;2023-03-01T05:35:43;12.38;;;6.68;;
23743;SDS011;12052;53.478;10.182;2023-03-01T05:38:11;13.98;;;6.78;;
23743;SDS011;12052;53.478;10.182;2023-03-01T05:40:38;13.70;;;7.05;;
23743;SDS011;12052;53.478;10.182;2023-03-01T05:43:04;16.30;;;7.40;;
23743;SDS011;12052;53.478;10.182;2023-03-01T05:45:30;14.93;;;7.18;;
23743;SDS011;12052;53.478;10.182;2023-03-01T05:47:59;14.63;;;7.15;;
23743;SDS011;12052;53.478;10.182;2023-03-01T05:50:26;11.25;;;5.82;;
23743;SDS011;12052;53.478;10.182;2023-03-01T05:52:58;13.85;;;7.05;;
23743;SDS011;12052;53.478;10.182;2023-03-01T05:55:26;15.25;;;6.60;;
23743;SDS011;12052;53.478;10.182;2023-03-01T05:58:12;17.77;;;6.03;;
23743;SDS011;12052;53.478;10.182;2023-03-01T06:03:06;14.57;;;6.15;;
23743;SDS011;12052;53.478;10.182;2023-03-01T06:05:35;11.27;;;5.10;;
23743;SDS011;12052;53.478;10.182;2023-03-01T06:08:01;13.02;;;6.38;;
23743;SDS011;12052;53.478;10.182;2023-03-01T06:10:28;13.50;;;6.13;;
23743;SDS011;12052;53.478;10.182;2023-03-01T06:12:54;9.98;;;5.57;;
23743;SDS011;12052;53.478;10.182;2023-03-01T06:15:22;10.02;;;6.07;;
23743;SDS011;12052;53.478;10.182;2023-03-01T06:17:49;9.75;;;6.15;;
23743;SDS011;12052;53.478;10.182;2023-03-01T06:20:44;9.30;;;5.07;;
23743;SDS011;12052;53.478;10.182;2023-03-01T06:23:41;8.77;;;6.00;;
23743;SDS011;12052;53.478;10.182;2023-03-01T06:26:07;10.45;;;5.68;;
23743;SDS011;12052;53.478;10.182;2023-03-01T06:28:35;11.63;;;6.30;;
23743;SDS011;12052;53.478;10.182;2023-03-01T06:31:01;13.40;;;6.20;;
23743;SDS011;12052;53.478;10.182;2023-03-01T06:33:28;14.65;;;5.57;;
23743;SDS011;12052;53.478;10.182;2023-03-01T06:35:54;7.97;;;5.35;;
23743;SDS011;12052;53.478;10.182;2023-03-01T06:38:20;14.65;;;6.05;;
23743;SDS011;12052;53.478;10.182;2023-03-01T06:40:51;8.02;;;5.32;;
23743;SDS011;12052;53.478;10.182;2023-03-01T06:43:19;7.03;;;4.78;;
23743;SDS011;12052;53.478;10.182;2023-03-01T06:45:45;11.43;;;5.38;;
23743;SDS011;12052;53.478;10.182;2023-03-01T06:48:10;8.13;;;5.22;;
23743;SDS011;12052;53.478;10.182;2023-03-01T06:50:36;10.65;;;6.20;;
23743;SDS011;12052;53.478;10.182;2023-03-01T06:53:02;10.98;;;5.72;;
23743;SDS011;12052;53.478;10.182;2023-03-01T06:55:28;16.08;;;8.07;;
23743;SDS011;12052;53.478;10.182;2023-03-01T06:57:54;16.20;;;7.55;;
23743;SDS011;12052;53.478;10.182;2023-03-01T07:00:21;17.50;;;7.95;;
23743;SDS011;12052;53.478;10.182;2023-03-01T07:02:47;12.90;;;6.93;;
23743;SDS011;12052;53.478;10.182;2023-03-01T07:05:12;10.68;;;6.63;;
23743;SDS011;12052;53.478;10.182;2023-03-01T07:07:38;14.32;;;6.40;;
23743;SDS011;12052;53.478;10.182;2023-03-01T07:10:04;16.55;;;6.75;;
23743;SDS011;12052;53.478;10.182;2023-03-01T07:12:30;11.45;;;5.88;;
23743;SDS011;12052;53.478;10.182;2023-03-01T07:14:56;14.80;;;5.88;;
23743;SDS011;12052;53.478;10.182;2023-03-01T07:17:23;12.73;;;6.25;;
23743;SDS011;12052;53.478;10.182;2023-03-01T07:19:52;11.45;;;5.70;;
23743;SDS011;12052;53.478;10.182;2023-03-01T07:22:18;13.23;;;7.22;;
23743;SDS011;12052;53.478;10.182;2023-03-01T07:24:44;12.30;;;6.63;;
23743;SDS011;12052;53.478;10.182;2023-03-01T07:27:15;12.85;;;6.53;;
23743;SDS011;12052;53.478;10.182;2023-03-01T07:29:40;13.32;;;7.50;;
23743;SDS011;12052;53.478;10.182;2023-03-01T07:32:06;13.50;;;7.28;;
23743;SDS011;12052;53.478;10.182;2023-03-01T07:34:32;12.60;;;7.13;;
23743;SDS011;12052;53.478;10.182;2023-03-01T07:36:58;13.63;;;6.85;;
23743;SDS011;12052;53.478;10.182;2023-03-01T07:39:23;11.27;;;6.30;;
23743;SDS011;12052;53.478;10.182;2023-03-01T07:41:49;17.25;;;5.60;;
23743;SDS011;12052;53.478;10.182;2023-03-01T07:44:15;14.73;;;6.80;;
23743;SDS011;12052;53.478;10.182;2023-03-01T07:46:42;9.35;;;5.63;;
23743;SDS011;12052;53.478;10.182;2023-03-01T07:49:09;13.55;;;6.85;;
23743;SDS011;12052;53.478;10.182;2023-03-01T07:51:35;12.05;;;5.45;;
23743;SDS011;12052;53.478;10.182;2023-03-01T07:54:02;10.98;;;6.00;;
23743;SDS011;12052;53.478;10.182;2023-03-01T07:56:28;10.82;;;5.00;;
23743;SDS011;12052;53.478;10.182;2023-03-01T07:58:55;9.55;;;5.57;;
23743;SDS011;12052;53.478;10.182;2023-03-01T08:01:30;8.48;;;5.25;;
23743;SDS011;12052;53.478;10.182;2023-03-01T08:03:56;10.80;;;5.63;;
23743;SDS011;12052;53.478;10.182;2023-03-01T08:06:22;10.30;;;5.90;;
23743;SDS011;12052;53.478;10.182;2023-03-01T08:08:49;10.95;;;5.18;;
23743;SDS011;12052;53.478;10.182;2023-03-01T08:11:16;12.85;;;5.72;;
23743;SDS011;12052;53.478;10.182;2023-03-01T08:14:04;8.77;;;4.75;;
23743;SDS011;12052;53.478;10.182;2023-03-01T08:16:36;11.32;;;5.00;;
23743;SDS011;12052;53.478;10.182;2023-03-01T08:19:06;8.13;;;5.00;;
23743;SDS011;12052;53.478;10.182;2023-03-01T08:21:37;10.13;;;5.45;;
23743;SDS011;12052;53.478;10.182;2023-03-01T08:24:05;8.68;;;4.78;;
23743;SDS011;12052;53.478;10.182;2023-03-01T08:26:38;9.68;;;4.85;;
23743;SDS011;12052;53.478;10.182;2023-03-01T08:29:06;10.60;;;4.93;;
23743;SDS011;12052;53.478;10.182;2023-03-01T08:31:35;8.15;;;4.60;;
23743;SDS011;12052;53.478;10.182;2023-03-01T08:34:07;11.40;;;5.47;;
23743;SDS011;12052;53.478;10.182;2023-03-01T08:36:41;18.35;;;5.43;;
23743;SDS011;12052;53.478;10.182;2023-03-01T08:39:10;10.57;;;5.18;;
23743;SDS011;12052;53.478;10.182;2023-03-01T08:41:37;8.90;;;4.75;;
23743;SDS011;12052;53.478;10.182;2023-03-01T08:44:04;9.95;;;5.65;;
23743;SDS011;12052;53.478;10.182;2023-03-01T08:46:32;11.70;;;5.30;;
23743;SDS011;12052;53.478;10.182;2023-03-01T08:49:04;9.57;;;4.95;;
23743;SDS011;12052;53.478;10.182;2023-03-01T08:51:32;12.82;;;5.50;;
23743;SDS011;12052;53.478;10.182;2023-03-01T08:54:02;10.32;;;5.50;;
23743;SDS011;12052;53.478;10.182;2023-03-01T08:56:46;10.20;;;5.35;;
23743;SDS011;12052;53.478;10.182;2023-03-01T08:59:14;11.98;;;5.43;;
23743;SDS011;12052;53.478;10.182;2023-03-01T09:01:41;12.00;;;5.57;;
23743;SDS011;12052;53.478;10.182;2023-03-01T09:04:10;9.65;;;5.38;;
23743;SDS011;12052;53.478;10.182;2023-03-01T09:06:37;13.57;;;6.53;;
23743;SDS011;12052;53.478;10.182;2023-03-01T09:09:04;10.75;;;6.25;;
23743;SDS011;12052;53.478;10.182;2023-03-01T09:11:30;15.52;;;5.90;;
23743;SDS011;12052;53.478;10.182;2023-03-01T09:13:56;19.63;;;6.57;;
23743;SDS011;12052;53.478;10.182;2023-03-01T09:16:23;14.05;;;6.40;;
23743;SDS011;12052;53.478;10.182;2023-03-01T09:18:52;13.07;;;5.55;;
23743;SDS011;12052;53.478;10.182;2023-03-01T09:21:21;11.82;;;5.78;;
23743;SDS011;12052;53.478;10.182;2023-03-01T09:23:47;15.77;;;6.35;;
23743;SDS011;12052;53.478;10.182;2023-03-01T09:26:15;15.48;;;6.15;;
23743;SDS011;12052;53.478;10.182;2023-03-01T09:28:46;17.98;;;6.55;;
23743;SDS011;12052;53.478;10.182;2023-03-01T09:31:15;14.88;;;6.45;;
23743;SDS011;12052;53.478;10.182;2023-03-01T09:33:50;18.33;;;6.72;;
23743;SDS011;12052;53.478;10.182;2023-03-01T09:36:35;15.95;;;6.88;;
23743;SDS011;12052;53.478;10.182;2023-03-01T09:39:03;14.05;;;6.60;;
23743;SDS011;12052;53.478;10.182;2023-03-01T09:46:56;14.65;;;6.85;;
23743;SDS011;12052;53.478;10.182;2023-03-01T09:49:30;14.15;;;6.90;;
23743;SDS011;12052;53.478;10.182;2023-03-01T09:52:06;12.18;;;6.50;;
23743;SDS011;12052;53.478;10.182;2023-03-01T09:54:52;15.52;;;6.32;;
23743;SDS011;12052;53.478;10.182;2023-03-01T09:57:25;18.55;;;7.05;;
23743;SDS011;12052;53.478;10.182;2023-03-01T10:08:31;13.95;;;6.60;;
23743;SDS011;12052;53.478;10.182;2023-03-01T10:11:21;18.63;;;7.47;;
23743;SDS011;12052;53.478;10.182;2023-03-01T10:13:56;12.00;;;7.18;;
23743;SDS011;12052;53.478;10.182;2023-03-01T10:16:34;18.65;;;8.02;;
23743;SDS011;12052;53.478;10.182;2023-03-01T10:19:05;17.48;;;8.23;;
23743;SDS011;12052;53.478;10.182;2023-03-01T10:21:37;17.50;;;8.55;;
23743;SDS011;12052;53.478;10.182;2023-03-01T10:24:16;14.05;;;8.20;;
23743;SDS011;12052;53.478;10.182;2023-03-01T10:26:54;19.58;;;9.05;;
23743;SDS011;12052;53.478;10.182;2023-03-01T10:29:23;21.48;;;9.35;;
23743;SDS011;12052;53.478;10.182;2023-03-01T10:32:04;15.85;;;8.25;;
23743;SDS011;12052;53.478;10.182;2023-03-01T10:34:32;18.30;;;8.40;;
23743;SDS011;12052;53.478;10.182;2023-03-01T10:37:08;15.23;;;7.53;;
23743;SDS011;12052;53.478;10.182;2023-03-01T10:39:35;16.83;;;8.50;;
23743;SDS011;12052;53.478;10.182;2023-03-01T10:42:26;20.38;;;8.70;;
23743;SDS011;12052;53.478;10.182;2023-03-01T10:44:55;15.75;;;8.82;;
23743;SDS011;12052;53.478;10.182;2023-03-01T10:47:39;20.80;;;8.68;;
23743;SDS011;12052;53.478;10.182;2023-03-01T10:50:05;13.23;;;7.20;;
23743;SDS011;12052;53.478;10.182;2023-03-01T10:52:42;15.52;;;7.85;;
23743;SDS011;12052;53.478;10.182;2023-03-01T11:00:47;13.48;;;7.38;;
23743;SDS011;12052;53.478;10.182;2023-03-01T11:11:06;14.63;;;7.53;;
23743;SDS011;12052;53.478;10.182;2023-03-01T11:13:53;15.10;;;7.80;;
23743;SDS011;12052;53.478;10.182;2023-03-01T11:16:34;14.55;;;7.47;;
23743;SDS011;12052;53.478;10.182;2023-03-01T11:21:34;14.00;;;6.32;;
23743;SDS011;12052;53.478;10.182;2023-03-01T11:24:18;11.88;;;7.07;;
23743;SDS011;12052;53.478;10.182;2023-03-01T11:26:50;15.43;;;7.13;;
23743;SDS011;12052;53.478;10.182;2023-03-01T11:29:38;11.45;;;7.03;;
23743;SDS011;12052;53.478;10.182;2023-03-01T11:32:11;14.25;;;7.10;;
23743;SDS011;12052;53.478;10.182;2023-03-01T11:37:39;14.20;;;7.63;;
23743;SDS011;12052;53.478;10.182;2023-03-01T11:40:13;10.82;;;6.50;;
23743;SDS011;12052;53.478;10.182;2023-03-01T11:42:59;17.20;;;7.20;;
23743;SDS011;12052;53.478;10.182;2023-03-01T11:45:47;15.32;;;7.35;;
23743;SDS011;12052;53.478;10.182;2023-03-01T11:50:51;11.13;;;6.85;;
23743;SDS011;12052;53.478;10.182;2023-03-01T12:07:46;17.45;;;7.88;;
23743;SDS011;12052;53.478;10.182;2023-03-01T12:26:55;14.18;;;7.38;;
23743;SDS011;12052;53.478;10.182;2023-03-01T12:29:37;12.27;;;6.95;;
23743;SDS011;12052;53.478;10.182;2023-03-01T12:37:51;12.25;;;6.68;;
23743;SDS011;12052;53.478;10.182;2023-03-01T12:43:21;12.27;;;6.43;;
23743;SDS011;12052;53.478;10.182;2023-03-01T12:46:03;12.30;;;6.60;;
23743;SDS011;12052;53.478;10.182;2023-03-01T12:51:38;10.10;;;6.18;;
23743;SDS011;12052;53.478;10.182;2023-03-01T12:54:07;9.70;;;5.80;;
23743;SDS011;12052;53.478;10.182;2023-03-01T12:56:40;13.70;;;6.75;;
23743;SDS011;12052;53.478;10.182;2023-03-01T13:07:37;11.55;;;7.00;;
23743;SDS011;12052;53.478;10.182;2023-03-01T13:17:52;12.48;;;7.15;;
23743;SDS011;12052;53.478;10.182;2023-03-01T13:33:50;10.32;;;6.10;;
23743;SDS011;12052;53.478;10.182;2023-03-01T13:39:00;15.05;;;6.38;;
23743;SDS011;12052;53.478;10.182;2023-03-01T13:46:52;11.05;;;5.25;;
23743;SDS011;12052;53.478;10.182;2023-03-01T13:49:34;9.73;;;4.82;;
23743;SDS011;12052;53.478;10.182;2023-03-01T13:52:13;9.82;;;4.90;;
23743;SDS011;12052;53.478;10.182;2023-03-01T13:55:24;9.32;;;5.13;;
23743;SDS011;12052;53.478;10.182;2023-03-01T13:57:56;10.40;;;4.50;;
23743;SDS011;12052;53.478;10.182;2023-03-01T14:00:31;7.35;;;4.30;;
23743;SDS011;12052;53.478;10.182;2023-03-01T14:05:42;6.82;;;4.18;;
23743;SDS011;12052;53.478;10.182;2023-03-01T14:08:27;8.80;;;4.90;;
23743;SDS011;12052;53.478;10.182;2023-03-01T14:16:20;9.82;;;4.45;;
23743;SDS011;12052;53.478;10.182;2023-03-01T14:19:17;5.32;;;3.35;;
23743;SDS011;12052;53.478;10.182;2023-03-01T14:21:49;8.38;;;4.00;;
23743;SDS011;12052;53.478;10.182;2023-03-01T14:24:27;9.60;;;4.13;;
23743;SDS011;12052;53.478;10.182;2023-03-01T14:26:54;7.05;;;4.07;;
23743;SDS011;12052;53.478;10.182;2023-03-01T14:29:36;13.73;;;4.57;;
23743;SDS011;12052;53.478;10.182;2023-03-01T14:34:35;12.30;;;4.00;;
23743;SDS011;12052;53.478;10.182;2023-03-01T14:39:58;8.40;;;4.10;;
23743;SDS011;12052;53.478;10.182;2023-03-01T14:42:27;9.98;;;4.63;;
23743;SDS011;12052;53.478;10.182;2023-03-01T14:44:56;7.90;;;4.20;;
23743;SDS011;12052;53.478;10.182;2023-03-01T14:49:53;9.85;;;4.20;;
23743;SDS011;12052;53.478;10.182;2023-03-01T14:52:34;7.30;;;3.92;;
23743;SDS011;12052;53.478;10.182;2023-03-01T14:55:21;9.57;;;4.68;;
23743;SDS011;12052;53.478;10.182;2023-03-01T14:57:51;7.32;;;3.42;;
23743;SDS011;12052;53.478;10.182;2023-03-01T15:00:18;7.95;;;4.10;;
23743;SDS011;12052;53.478;10.182;2023-03-01T15:02:54;6.85;;;4.10;;
23743;SDS011;12052;53.478;10.182;2023-03-01T15:05:26;7.75;;;4.13;;
23743;SDS011;12052;53.478;10.182;2023-03-01T15:07:57;9.48;;;3.60;;
23743;SDS011;12052;53.478;10.182;2023-03-01T15:10:27;8.25;;;3.78;;
23743;SDS011;12052;53.478;10.182;2023-03-01T15:12:54;8.50;;;4.05;;
23743;SDS011;12052;53.478;10.182;2023-03-01T15:15:22;5.82;;;3.88;;
23743;SDS011;12052;53.478;10.182;2023-03-01T15:18:04;8.25;;;3.55;;
23743;SDS011;12052;53.478;10.182;2023-03-01T15:20:38;8.73;;;4.45;;
23743;SDS011;12052;53.478;10.182;2023-03-01T15:23:04;8.90;;;4.40;;
23743;SDS011;12052;53.478;10.182;2023-03-01T15:25:30;9.30;;;5.45;;
23743;SDS011;12052;53.478;10.182;2023-03-01T15:27:58;9.55;;;4.63;;
23743;SDS011;12052;53.478;10.182;2023-03-01T15:30:31;6.57;;;4.72;;
23743;SDS011;12052;53.478;10.182;2023-03-01T15:36:03;7.93;;;3.97;;
23743;SDS011;12052;53.478;10.182;2023-03-01T15:38:53;7.38;;;3.97;;
23743;SDS011;12052;53.478;10.182;2023-03-01T15:41:26;5.60;;;3.75;;
23743;SDS011;12052;53.478;10.182;2023-03-01T15:43:55;8.13;;;3.60;;
23743;SDS011;12052;53.478;10.182;2023-03-01T15:46:32;5.85;;;3.47;;
23743;SDS011;12052;53.478;10.182;2023-03-01T15:49:17;7.13;;;3.80;;
23743;SDS011;12052;53.478;10.182;2023-03-01T15:51:49;5.93;;;3.45;;
23743;SDS011;12052;53.478;10.182;2023-03-01T15:54:19;5.28;;;3.42;;
23743;SDS011;12052;53.478;10.182;2023-03-01T15:56:46;6.22;;;3.72;;
23743;SDS011;12052;53.478;10.182;2023-03-01T15:59:12;7.80;;;3.33;;
23743;SDS011;12052;53.478;10.182;2023-03-01T16:01:39;7.30;;;3.67;;
23743;SDS011;12052;53.478;10.182;2023-03-01T16:04:12;7.50;;;3.55;;
23743;SDS011;12052;53.478;10.182;2023-03-01T16:06:45;4.88;;;3.17;;
23743;SDS011;12052;53.478;10.182;2023-03-01T16:09:23;4.93;;;3.30;;
23743;SDS011;12052;53.478;10.182;2023-03-01T16:11:50;5.00;;;3.00;;
23743;SDS011;12052;53.478;10.182;2023-03-01T16:14:17;5.75;;;3.13;;
23743;SDS011;12052;53.478;10.182;2023-03-01T16:16:43;6.78;;;2.95;;
23743;SDS011;12052;53.478;10.182;2023-03-01T16:19:09;4.85;;;2.50;;
23743;SDS011;12052;53.478;10.182;2023-03-01T16:21:35;5.70;;;3.00;;
23743;SDS011;12052;53.478;10.182;2023-03-01T16:24:03;6.00;;;3.55;;
23743;SDS011;12052;53.478;10.182;2023-03-01T16:26:29;5.18;;;3.28;;
23743;SDS011;12052;53.478;10.182;2023-03-01T16:28:56;6.40;;;3.47;;
23743;SDS011;12052;53.478;10.182;2023-03-01T16:31:23;7.57;;;3.95;;
23743;SDS011;12052;53.478;10.182;2023-03-01T16:33:54;8.68;;;4.15;;
23743;SDS011;12052;53.478;10.182;2023-03-01T16:36:20;10.20;;;3.97;;
23743;SDS011;12052;53.478;10.182;2023-03-01T16:38:48;7.57;;;4.03;;
23743;SDS011;12052;53.478;10.182;2023-03-01T16:41:16;10.15;;;4.82;;
23743;SDS011;12052;53.478;10.182;2023-03-01T16:43:43;9.20;;;4.85;;
23743;SDS011;12052;53.478;10.182;2023-03-01T16:46:15;10.55;;;4.93;;
23743;SDS011;12052;53.478;10.182;2023-03-01T16:48:42;9.27;;;4.97;;
23743;SDS011;12052;53.478;10.182;2023-03-01T16:51:08;8.50;;;4.18;;
23743;SDS011;12052;53.478;10.182;2023-03-01T16:53:35;7.07;;;3.97;;
23743;SDS011;12052;53.478;10.182;2023-03-01T16:56:03;7.85;;;4.10;;
23743;SDS011;12052;53.478;10.182;2023-03-01T16:58:34;7.28;;;3.67;;
23743;SDS011;12052;53.478;10.182;2023-03-01T17:03:32;7.38;;;3.85;;
23743;SDS011;12052;53.478;10.182;2023-03-01T17:06:20;7.40;;;4.10;;
23743;SDS011;12052;53.478;10.182;2023-03-01T17:08:50;7.95;;;4.53;;